Terminal Aerodrome Forecast
Issued by NWS

Home | Current Version | Previous Version | Graphics & Text | Print | Product List | Glossary On
Versions: 1 2 3 4 5 6 7 8 9 10 11 12 13 14 15 16 17 18 19 20 21 22
808
FTUS43 KBIS 241911 AAA
TAFJMS
TAF AMD
KJMS 241911Z 2419/2518 02009KT P6SM BKN016
     FM250200 09005KT P6SM BKN060
     FM251000 12006KT 4SM BR SCT025
     FM251400 15008KT 3SM BR SCT045
     FM251700 15011KT P6SM SCT030=

USA.gov is the U.S. government's official web portal to all federal, state and local government web resources and services.